Time;durP1;ratioP1;P1;durP2;ratioP2;P2;SDS_P1;SDS_P2;PMS_P1;PMS_P2;Temp;Humidity;BMP_temperature;BMP_pressure;BME280_temperature;BME280_humidity;BME280_pressure;Samples;Min_cycle;Max_cycle;Signal;HPM_P1;HPM_P2
2024/02/28 00:04:23;;;;;;;9.90;2.83;;;;;;;14.19;100.00;101480.88;10484111;28;20041;-81
2024/02/28 00:09:46;;;;;;;11.73;2.88;;;;;;;14.54;100.00;101481.34;10478574;28;20495;-82
2024/02/28 00:15:11;;;;;;;11.57;2.90;;;;;;;14.66;100.00;101484.13;10495326;28;20068;-82
2024/02/28 00:20:34;;;;;;;6.88;3.15;;;;;;;14.61;100.00;101486.75;10485965;28;20095;-82
2024/02/28 00:25:57;;;;;;;8.75;4.80;;;;;;;14.59;100.00;101471.63;10477808;28;20056;-82
2024/02/28 00:31:22;;;;;;;11.68;2.90;;;;;;;14.73;100.00;101449.66;10464399;28;20052;-83
2024/02/28 00:36:45;;;;;;;6.57;3.22;;;;;;;14.67;100.00;101457.56;10465310;28;20049;-83
2024/02/28 00:42:08;;;;;;;30.92;20.92;;;;;;;14.75;100.00;101458.53;10464586;28;20045;-83
2024/02/28 00:47:32;;;;;;;33.10;28.85;;;;;;;14.55;100.00;101446.81;10458935;28;20053;-84
2024/02/28 00:52:55;;;;;;;11.98;4.38;;;;;;;13.90;100.00;101457.53;10445029;28;20060;-83
2024/02/28 00:58:17;;;;;;;9.88;2.75;;;;;;;14.02;100.00;101454.13;10444083;28;20048;-83
2024/02/28 01:03:42;;;;;;;7.90;4.63;;;;;;;14.11;100.00;101425.03;10494078;28;20072;-83
2024/02/28 01:09:04;;;;;;;9.95;5.43;;;;;;;14.07;100.00;101443.56;10466246;28;20416;-82
2024/02/28 01:14:27;;;;;;;6.82;3.25;;;;;;;13.94;100.00;101443.41;10520350;28;20084;-83
2024/02/28 01:19:51;;;;;;;8.20;2.30;;;;;;;14.31;100.00;101444.72;10484443;28;20090;-83
2024/02/28 01:25:14;;;;;;;11.73;4.55;;;;;;;14.31;100.00;101442.06;10482534;28;20060;-84
2024/02/28 01:30:36;;;;;;;12.50;4.90;;;;;;;14.49;100.00;101432.59;10511989;28;20545;-83
2024/02/28 01:36:00;;;;;;;13.95;5.75;;;;;;;14.58;100.00;101419.38;10484082;28;20052;-83
2024/02/28 01:41:23;;;;;;;12.82;7.43;;;;;;;14.65;100.00;101439.81;10511423;28;20049;-82
2024/02/28 01:46:46;;;;;;;13.60;9.35;;;;;;;14.77;100.00;101437.28;10461088;28;20670;-83
2024/02/28 01:52:11;;;;;;;13.00;4.78;;;;;;;14.57;100.00;101447.69;10496948;28;20052;-83
2024/02/28 01:57:34;;;;;;;7.93;2.80;;;;;;;14.87;100.00;101446.22;10496678;28;20045;-84
2024/02/28 02:02:57;;;;;;;10.80;4.35;;;;;;;14.74;100.00;101456.75;10510288;28;20047;-83
2024/02/28 02:08:22;;;;;;;10.50;3.42;;;;;;;14.52;100.00;101456.50;10495459;28;20052;-83
2024/02/28 02:13:52;;;;;;;7.97;3.55;;;;;;;14.59;100.00;101468.97;10483214;28;20557;-83
2024/02/28 02:19:14;;;;;;;13.82;4.75;;;;;;;14.62;100.00;101466.38;10481931;28;20045;-83
2024/02/28 02:24:38;;;;;;;11.82;3.70;;;;;;;14.48;100.00;101474.19;10523732;28;20059;-83
2024/02/28 02:30:01;;;;;;;10.43;4.20;;;;;;;14.50;100.00;101452.97;10482390;28;20129;-83
2024/02/28 02:35:23;;;;;;;8.02;3.40;;;;;;;14.36;100.00;101453.66;10523785;28;20081;-83
2024/02/28 02:40:49;;;;;;;9.95;3.70;;;;;;;14.25;100.00;101487.16;10525485;27;20056;-83
2024/02/28 02:46:12;;;;;;;14.57;3.85;;;;;;;14.11;100.00;101477.25;10467092;28;20072;-84
2024/02/28 02:51:34;;;;;;;10.65;5.32;;;;;;;14.04;100.00;101502.84;10449878;28;20057;-84
2024/02/28 02:56:59;;;;;;;15.30;8.05;;;;;;;14.31;100.00;101495.19;10482183;28;20500;-84
2024/02/28 03:02:21;;;;;;;20.50;18.27;;;;;;;14.67;100.00;101499.19;10465058;28;20470;-83
2024/02/28 03:07:44;;;;;;;14.52;3.72;;;;;;;14.59;100.00;101495.56;10442852;28;20049;-82
2024/02/28 03:13:08;;;;;;;11.05;3.50;;;;;;;14.42;100.00;101506.00;10476127;28;20048;-83
2024/02/28 03:18:30;;;;;;;16.95;15.20;;;;;;;14.61;100.00;101523.94;10479944;28;20472;-83
2024/02/28 03:23:53;;;;;;;13.30;6.28;;;;;;;14.51;100.00;101537.09;10492378;28;20052;-84
2024/02/28 03:29:17;;;;;;;11.60;4.97;;;;;;;14.44;100.00;101536.13;10507537;28;20062;-83
2024/02/28 03:34:39;;;;;;;12.55;4.32;;;;;;;14.30;100.00;101538.59;10507434;28;20147;-83
2024/02/28 03:40:02;;;;;;;11.48;3.70;;;;;;;14.39;100.00;101536.94;10476611;28;20725;-83
2024/02/28 03:45:29;;;;;;;10.23;4.05;;;;;;;14.44;100.00;101548.53;10452164;28;20053;-83
2024/02/28 03:50:51;;;;;;;14.82;5.82;;;;;;;14.43;100.00;101547.66;10462276;28;20072;-84
2024/02/28 03:56:15;;;;;;;9.43;5.30;;;;;;;14.41;100.00;101553.81;10478547;28;20110;-83
2024/02/28 04:01:39;;;;;;;15.10;4.95;;;;;;;14.36;100.00;101559.94;10465040;28;20048;-83
2024/02/28 04:07:01;;;;;;;12.02;5.30;;;;;;;14.29;100.00;101578.41;10477976;28;20377;-83
2024/02/28 04:12:24;;;;;;;13.82;7.82;;;;;;;14.27;100.00;101586.34;10483267;28;20044;-83
2024/02/28 04:17:48;;;;;;;16.05;8.10;;;;;;;14.34;100.00;101584.66;10450319;28;20041;-82
2024/02/28 04:23:10;;;;;;;7.57;4.20;;;;;;;14.07;100.00;101582.53;10478016;28;20103;-83
2024/02/28 04:28:32;;;;;;;11.13;4.32;;;;;;;13.96;100.00;101594.75;10436560;28;20110;-84
2024/02/28 04:33:56;;;;;;;6.82;3.83;;;;;;;13.82;100.00;101588.34;10464565;28;20045;-83
2024/02/28 04:39:19;;;;;;;9.52;3.92;;;;;;;13.76;100.00;101598.84;10478153;28;20146;-83
2024/02/28 04:44:41;;;;;;;19.90;10.88;;;;;;;13.95;100.00;101596.50;10477805;28;20061;-83
2024/02/28 04:50:06;;;;;;;14.57;5.55;;;;;;;14.03;100.00;101601.94;10449690;28;20051;-83
2024/02/28 04:55:29;;;;;;;20.25;11.15;;;;;;;13.95;100.00;101600.94;10506487;28;20041;-84
2024/02/28 05:00:52;;;;;;;13.00;5.57;;;;;;;13.85;100.00;101605.19;10477177;28;20140;-82
2024/02/28 05:06:16;;;;;;;11.32;5.40;;;;;;;14.05;100.00;101624.06;10455499;28;20044;-83
2024/02/28 05:11:38;;;;;;;12.90;6.40;;;;;;;14.26;100.00;101623.50;10475105;28;20059;-82
2024/02/28 05:17:01;;;;;;;16.73;7.35;;;;;;;14.54;100.00;101644.31;10477122;28;20387;-83
2024/02/28 05:22:25;;;;;;;14.32;9.65;;;;;;;14.66;100.00;101638.25;10475990;28;20113;-83
2024/02/28 05:27:47;;;;;;;12.00;7.10;;;;;;;14.64;100.00;101645.31;10435276;28;20060;-83
2024/02/28 05:33:11;;;;;;;16.35;11.23;;;;;;;14.79;100.00;101656.16;10456667;28;20241;-84
2024/02/28 05:38:35;;;;;;;19.60;13.55;;;;;;;15.13;100.00;101660.13;10442732;28;20053;-82
2024/02/28 05:43:57;;;;;;;11.20;9.80;;;;;;;15.43;100.00;101662.19;10493148;28;20055;-83
2024/02/28 05:49:20;;;;;;;14.13;8.32;;;;;;;15.68;100.00;101664.28;10483698;28;20055;-83
2024/02/28 05:54:44;;;;;;;17.40;9.85;;;;;;;16.05;100.00;101675.22;10479352;28;20067;-83
2024/02/28 06:00:09;;;;;;;81.30;70.00;;;;;;;16.41;100.00;101671.97;10483293;28;20408;-82
2024/02/28 06:05:33;;;;;;;14.68;11.07;;;;;;;16.41;100.00;101680.81;10496747;28;20064;-84
2024/02/28 06:10:57;;;;;;;17.27;14.52;;;;;;;17.52;100.00;101676.00;10479971;28;20404;-83
2024/02/28 06:16:20;;;;;;;20.33;12.70;;;;;;;19.48;100.00;101652.44;10472933;28;20049;-84
2024/02/28 06:21:43;;;;;;;12.77;8.77;;;;;;;19.97;100.00;101638.63;10454895;28;20053;-83
2024/02/28 06:27:12;;;;;;;22.33;18.33;;;;;;;22.95;100.00;101631.53;10440726;28;20053;-85
2024/02/28 06:32:34;;;;;;;34.38;31.02;;;;;;;22.37;100.00;101626.41;10471895;28;20060;-86
2024/02/28 06:37:57;;;;;;;15.20;9.82;;;;;;;23.29;100.00;101629.88;10481642;28;20056;-87
2024/02/28 06:43:21;;;;;;;14.23;8.57;;;;;;;22.22;100.00;101631.16;10495273;28;20625;-86
2024/02/28 06:48:44;;;;;;;7.68;3.60;;;;;;;21.45;100.00;101636.03;10469663;28;20044;-86
2024/02/28 06:54:06;;;;;;;9.55;3.45;;;;;;;20.66;100.00;101633.50;10476894;28;20048;-87
2024/02/28 06:59:31;;;;;;;9.77;4.55;;;;;;;19.51;100.00;101638.13;10473087;28;20056;-86
2024/02/28 07:04:53;;;;;;;9.88;3.38;;;;;;;19.30;100.00;101659.63;10477012;28;20102;-85
2024/02/28 07:10:16;;;;;;;5.55;1.85;;;;;;;20.65;100.00;101642.44;10453519;28;20049;-85
2024/02/28 07:15:41;;;;;;;6.93;1.60;;;;;;;20.66;100.00;101645.13;10492624;28;20076;-86
2024/02/28 07:21:06;;;;;;;5.70;1.85;;;;;;;21.05;100.00;101646.41;10506926;28;20057;-86
2024/02/28 07:26:29;;;;;;;4.47;2.00;;;;;;;21.96;100.00;101648.66;10480484;28;20523;-87
2024/02/28 07:31:53;;;;;;;7.00;1.83;;;;;;;22.04;100.00;101644.06;10480289;28;20049;-87
2024/02/28 07:37:15;;;;;;;4.93;2.15;;;;;;;23.18;100.00;101656.13;10466000;28;20064;-86
2024/02/28 07:42:38;;;;;;;7.70;2.15;;;;;;;22.86;100.00;101655.94;10485967;28;20044;-85
2024/02/28 07:48:02;;;;;;;5.47;2.33;;;;;;;22.69;100.00;101650.88;10441891;28;20048;-85
2024/02/28 07:53:25;;;;;;;5.40;2.20;;;;;;;22.82;100.00;101655.13;10478908;28;20055;-85
2024/02/28 07:58:47;;;;;;;6.60;2.05;;;;;;;26.57;94.37;101649.91;10477645;28;20044;-86
2024/02/28 08:04:11;;;;;;;4.15;1.92;;;;;;;28.37;67.91;101656.25;10519874;28;20049;-85
2024/02/28 08:09:34;;;;;;;7.93;3.50;;;;;;;29.35;56.87;101655.41;10488342;28;20135;-85
2024/02/28 08:14:57;;;;;;;6.97;2.78;;;;;;;28.49;54.27;101647.56;10485642;28;20040;-86
2024/02/28 08:20:21;;;;;;;4.28;1.92;;;;;;;27.85;52.56;101642.19;10479071;28;20090;-83
2024/02/28 08:25:44;;;;;;;5.45;1.80;;;;;;;28.31;49.67;101646.56;10491060;28;20492;-85
2024/02/28 08:31:07;;;;;;;6.43;2.28;;;;;;;29.39;47.13;101651.59;10503395;28;20054;-83
2024/02/28 08:36:34;;;;;;;4.22;1.17;;;;;;;29.09;44.74;101648.44;10463063;28;20060;-82
2024/02/28 08:41:56;;;;;;;6.95;1.70;;;;;;;25.83;53.67;101657.00;10467418;28;20040;-79
2024/02/28 08:47:19;;;;;;;7.60;1.40;;;;;;;24.74;64.75;101647.75;10463033;28;20656;-81
2024/02/28 08:52:43;;;;;;;7.45;2.33;;;;;;;24.30;72.72;101647.16;10463468;28;20060;-83
2024/02/28 08:58:05;;;;;;;8.40;2.80;;;;;;;24.71;75.76;101651.41;10508883;28;20473;-83
2024/02/28 09:03:28;;;;;;;5.95;1.60;;;;;;;23.93;80.02;101649.00;10470049;28;20782;-82
2024/02/28 09:08:52;;;;;;;5.97;2.00;;;;;;;25.72;67.91;101643.84;10483561;28;20059;-81
2024/02/28 09:14:15;;;;;;;7.65;2.63;;;;;;;25.08;74.98;101653.94;10477584;28;20069;-87
2024/02/28 09:19:37;;;;;;;7.38;2.00;;;;;;;24.27;87.14;101666.16;10522606;28;20405;-85
2024/02/28 09:25:03;;;;;;;8.43;2.20;;;;;;;24.81;79.87;101669.09;10462554;28;20068;-81
2024/02/28 09:30:26;;;;;;;5.03;2.22;;;;;;;24.83;76.85;101672.66;10510421;28;20055;-81
2024/02/28 09:35:48;;;;;;;4.47;1.65;;;;;;;24.64;84.02;101676.81;10502591;28;20378;-81
2024/02/28 09:41:16;;;;;;;9.27;2.60;;;;;;;24.15;88.47;101677.22;10496182;28;20492;-83
2024/02/28 09:46:38;;;;;;;;;;;;;;;23.20;96.23;101680.38;10494540;28;20052;-81
2024/02/28 09:52:01;;;;;;;7.50;1.90;;;;;;;23.84;94.13;101677.97;10497847;28;20280;-85
2024/02/28 09:57:28;;;;;;;9.38;2.38;;;;;;;24.16;87.83;101674.47;10495632;28;20048;-84
2024/02/28 10:02:52;;;;;;;5.78;2.30;;;;;;;23.70;81.13;101666.63;10466259;28;20072;-84
2024/02/28 10:08:15;;;;;;;10.63;4.68;;;;;;;23.20;88.75;101667.78;10525088;28;20567;-85
2024/02/28 10:13:39;;;;;;;7.57;3.10;;;;;;;26.69;59.65;101650.38;10471869;28;20063;-86
2024/02/28 10:19:02;;;;;;;21.92;17.52;;;;;;;29.37;47.01;101632.63;10523044;28;20056;-85
2024/02/28 10:24:25;;;;;;;6.22;4.18;;;;;;;28.63;42.93;101633.34;10495147;28;20090;-85
2024/02/28 10:29:49;;;;;;;7.90;6.30;;;;;;;28.84;43.81;101640.56;10492698;28;20116;-85
2024/02/28 10:35:13;;;;;;;10.63;7.07;;;;;;;29.25;42.13;101647.66;10495319;28;20055;-83
2024/02/28 10:40:36;;;;;;;4.68;2.10;;;;;;;28.78;40.17;101627.25;10490161;28;20064;-84
2024/02/28 10:46:01;;;;;;;11.45;6.63;;;;;;;27.79;41.83;101625.28;10474616;28;20560;-84
2024/02/28 10:51:26;;;;;;;7.78;2.45;;;;;;;27.91;43.05;101614.78;10506889;28;20553;-88
2024/02/28 10:56:49;;;;;;;5.50;1.80;;;;;;;28.58;41.33;101608.22;10493870;28;20396;-86
2024/02/28 11:02:14;;;;;;;9.20;2.15;;;;;;;26.43;44.62;101610.72;10465592;28;20395;-85
2024/02/28 11:07:36;;;;;;;8.15;2.75;;;;;;;26.53;45.29;101604.88;10473768;28;20102;-84
2024/02/28 11:12:59;;;;;;;8.10;3.30;;;;;;;26.54;45.07;101597.66;10479287;28;20041;-81
2024/02/28 11:18:23;;;;;;;4.13;1.50;;;;;;;25.48;48.46;101598.63;10488827;28;20052;-81
2024/02/28 11:23:48;;;;;;;4.60;0.90;;;;;;;26.15;50.30;101603.53;10496524;28;20045;-79
2024/02/28 11:29:11;;;;;;;4.53;1.20;;;;;;;25.34;51.22;101599.06;10508926;28;20049;-88
2024/02/28 11:34:35;;;;;;;8.35;2.33;;;;;;;24.76;56.32;101587.31;10446316;28;20108;-81
2024/02/28 11:39:58;;;;;;;7.30;2.28;;;;;;;24.55;59.14;101588.84;10495061;28;20073;-86
2024/02/28 11:45:21;;;;;;;5.85;1.80;;;;;;;24.31;61.26;101585.97;10470246;28;20147;-88
2024/02/28 11:50:45;;;;;;;4.30;1.38;;;;;;;24.19;65.71;101585.38;10498536;28;20067;-88
2024/02/28 11:56:08;;;;;;;6.18;1.50;;;;;;;24.36;63.85;101589.41;10449692;28;20045;-87
2024/02/28 12:01:38;;;;;;;8.98;1.98;;;;;;;24.15;65.41;101580.97;10462073;28;20057;-82
2024/02/28 12:07:02;;;;;;;9.27;3.50;;;;;;;22.61;68.58;101586.44;10453827;28;20048;-82
2024/02/28 12:12:25;;;;;;;5.93;2.47;;;;;;;22.48;71.11;101582.22;10463659;28;20059;-83
2024/02/28 12:17:47;;;;;;;5.47;2.70;;;;;;;22.46;70.24;101583.16;10459951;28;20059;-79
2024/02/28 12:23:11;;;;;;;5.75;1.70;;;;;;;21.96;74.38;101590.41;10484980;28;20137;-88
2024/02/28 12:28:34;;;;;;;5.80;1.95;;;;;;;22.33;75.26;101589.69;10450105;28;20416;-83
2024/02/28 12:33:57;;;;;;;8.45;2.50;;;;;;;22.87;72.97;101599.38;10460229;28;20048;-87
2024/02/28 12:39:23;;;;;;;7.90;2.15;;;;;;;23.02;71.00;101603.53;10483799;28;20373;-85
2024/02/28 12:44:46;;;;;;;8.38;1.95;;;;;;;22.93;76.88;101593.84;10466798;28;20383;-82
2024/02/28 12:50:09;;;;;;;9.32;2.50;;;;;;;22.46;81.12;101578.66;10470068;28;20060;-84
2024/02/28 12:55:33;;;;;;;6.78;2.50;;;;;;;22.24;83.52;101569.25;10507168;28;20801;-84
2024/02/28 13:00:56;;;;;;;6.85;2.17;;;;;;;21.94;85.45;101578.75;10482883;28;20068;-85
2024/02/28 13:06:18;;;;;;;16.17;9.02;;;;;;;22.37;86.42;101569.91;10456124;28;20045;-82
2024/02/28 13:11:43;;;;;;;5.97;3.10;;;;;;;22.06;90.81;101570.47;10482386;28;20044;-85
2024/02/28 13:17:06;;;;;;;11.85;5.47;;;;;;;22.27;90.57;101558.41;10483033;28;20059;-84
2024/02/28 13:22:28;;;;;;;6.90;3.03;;;;;;;22.31;88.84;101545.81;10507418;27;20051;-85
2024/02/28 13:27:52;;;;;;;9.85;2.58;;;;;;;22.06;91.93;101542.69;10483375;28;20059;-85
2024/02/28 13:33:14;;;;;;;6.75;2.78;;;;;;;21.71;95.61;101543.34;10483061;28;20086;-84
2024/02/28 13:38:37;;;;;;;10.50;3.72;;;;;;;21.93;96.46;101542.00;10497786;28;20073;-87
2024/02/28 13:44:01;;;;;;;5.80;1.90;;;;;;;22.01;94.81;101539.22;10482036;28;20076;-85
2024/02/28 13:49:23;;;;;;;7.57;3.00;;;;;;;21.56;89.93;101547.16;10496243;28;20040;-83
2024/02/28 13:54:47;;;;;;;8.75;4.28;;;;;;;21.49;92.48;101548.19;10469513;28;20571;-86
2024/02/28 14:00:13;;;;;;;8.38;1.38;;;;;;;21.59;91.19;101533.69;10508346;28;20127;-87
2024/02/28 14:05:36;;;;;;;11.55;2.42;;;;;;;21.36;89.81;101528.69;10494796;28;20045;-88
2024/02/28 14:10:59;;;;;;;11.48;3.03;;;;;;;20.98;94.82;101553.44;10476237;28;20048;-89
2024/02/28 14:16:23;;;;;;;13.48;4.07;;;;;;;21.55;95.08;101544.50;10487580;28;20133;-89
2024/02/28 14:21:46;;;;;;;13.13;6.05;;;;;;;21.48;95.78;101532.97;10502881;28;20041;-86
2024/02/28 14:27:09;;;;;;;6.53;2.22;;;;;;;21.28;90.74;101521.66;10511363;27;20442;-88
2024/02/28 14:32:33;;;;;;;8.65;1.83;;;;;;;20.49;94.62;101531.72;10469383;28;20480;-85
2024/02/28 14:37:55;;;;;;;10.25;2.40;;;;;;;20.49;100.00;101534.41;10466125;28;20045;-87
2024/02/28 14:43:18;;;;;;;11.35;4.50;;;;;;;20.14;100.00;101517.84;10495105;28;20491;-88
2024/02/28 14:48:42;;;;;;;10.65;2.95;;;;;;;19.78;100.00;101528.03;10484588;28;20132;-86
2024/02/28 14:54:05;;;;;;;15.43;5.72;;;;;;;19.66;100.00;101532.63;10463153;28;20105;-85
2024/02/28 14:59:27;;;;;;;9.57;2.45;;;;;;;19.44;100.00;101534.56;10475099;28;20049;-86
2024/02/28 15:04:51;;;;;;;6.35;1.98;;;;;;;19.36;100.00;101525.75;10493593;28;20067;-87
2024/02/28 15:10:14;;;;;;;9.50;2.03;;;;;;;19.17;100.00;101524.06;10508812;27;20049;-86
2024/02/28 15:15:37;;;;;;;10.50;2.08;;;;;;;19.03;100.00;101529.56;10481084;28;20049;-85
2024/02/28 15:21:01;;;;;;;11.05;2.58;;;;;;;18.92;100.00;101531.38;10516800;28;20127;-86
2024/02/28 15:26:24;;;;;;;9.65;2.83;;;;;;;18.73;100.00;101525.25;10471750;28;20565;-86
2024/02/28 15:31:47;;;;;;;8.48;1.75;;;;;;;18.56;100.00;101530.72;10481117;28;20049;-87
2024/02/28 15:37:12;;;;;;;9.75;2.33;;;;;;;18.53;100.00;101532.47;10483031;28;20056;-86
2024/02/28 15:42:34;;;;;;;7.38;2.63;;;;;;;18.27;100.00;101549.50;10476732;28;20052;-88
2024/02/28 15:47:57;;;;;;;6.82;2.65;;;;;;;18.18;100.00;101541.50;10507400;27;20056;-86
2024/02/28 15:53:21;;;;;;;12.88;3.05;;;;;;;17.99;100.00;101537.09;10477240;28;20125;-87
2024/02/28 15:58:45;;;;;;;16.10;4.35;;;;;;;17.95;100.00;101534.44;10476767;28;20044;-85
2024/02/28 16:04:07;;;;;;;14.88;5.60;;;;;;;17.88;100.00;101545.16;10489956;28;20048;-87
2024/02/28 16:09:32;;;;;;;21.83;6.25;;;;;;;17.84;100.00;101545.16;10488086;28;20072;-86
2024/02/28 16:14:55;;;;;;;13.57;5.97;;;;;;;17.79;100.00;101544.25;10494393;28;20119;-86
2024/02/28 16:20:19;;;;;;;18.83;7.32;;;;;;;18.07;100.00;101553.13;10467997;28;20060;-86
2024/02/28 16:25:44;;;;;;;15.50;6.63;;;;;;;18.27;100.00;101560.19;10451900;28;20079;-89
2024/02/28 16:31:10;;;;;;;17.50;6.57;;;;;;;18.30;100.00;101557.53;10501673;28;20045;-86
2024/02/28 16:36:34;;;;;;;16.52;6.85;;;;;;;18.07;100.00;101554.00;10475649;28;20557;-89
2024/02/28 16:41:58;;;;;;;18.67;7.47;;;;;;;17.69;100.00;101555.88;10454473;28;20056;-78
2024/02/28 16:47:20;;;;;;;22.42;8.35;;;;;;;17.48;100.00;101556.72;10481807;28;20404;-83
2024/02/28 16:52:44;;;;;;;11.50;6.80;;;;;;;17.52;100.00;101546.03;10465679;28;20037;-84
2024/02/28 16:58:08;;;;;;;15.65;7.65;;;;;;;17.62;100.00;101546.06;10488640;28;20060;-81
2024/02/28 17:03:32;;;;;;;24.00;11.45;;;;;;;18.03;100.00;101544.25;10483170;28;20047;-87
2024/02/28 17:08:55;;;;;;;29.27;22.17;;;;;;;18.32;100.00;101550.38;10468533;28;20146;-88
2024/02/28 17:14:19;;;;;;;21.25;7.47;;;;;;;18.38;100.00;101548.59;10474466;28;20044;-84
2024/02/28 17:19:42;;;;;;;18.55;8.43;;;;;;;18.32;100.00;101539.69;10511488;28;20466;-81
2024/02/28 17:25:06;;;;;;;12.57;8.00;;;;;;;18.44;100.00;101541.44;10432998;28;20539;-81
2024/02/28 17:30:30;;;;;;;13.60;7.60;;;;;;;18.53;100.00;101540.47;10494357;28;20049;-83
2024/02/28 17:35:53;;;;;;;14.82;7.75;;;;;;;18.44;100.00;101535.19;10498123;28;20041;-82
2024/02/28 17:41:15;;;;;;;15.57;7.20;;;;;;;18.36;100.00;101535.22;10486403;28;20037;-85
2024/02/28 17:46:39;;;;;;;16.45;8.15;;;;;;;18.02;100.00;101545.13;10462078;28;20102;-87
2024/02/28 17:52:02;;;;;;;9.48;7.05;;;;;;;17.81;100.00;101551.41;10481634;28;20057;-87
2024/02/28 17:57:25;;;;;;;15.02;8.80;;;;;;;17.50;100.00;101554.94;10459396;28;20063;-85
2024/02/28 18:02:50;;;;;;;16.73;7.70;;;;;;;17.53;100.00;101550.50;10458406;28;20052;-84
2024/02/28 18:08:12;;;;;;;21.02;8.05;;;;;;;17.28;100.00;101562.06;10457397;28;20118;-84
2024/02/28 18:13:36;;;;;;;14.60;8.10;;;;;;;17.29;100.00;101562.94;10459291;28;20448;-87
2024/02/28 18:19:00;;;;;;;13.45;7.60;;;;;;;17.20;100.00;101566.47;10456737;28;20049;-88
2024/02/28 18:24:22;;;;;;;16.15;7.95;;;;;;;17.09;100.00;101568.25;10488902;28;20056;-86
2024/02/28 18:29:44;;;;;;;15.57;8.68;;;;;;;16.92;100.00;101572.66;10506960;28;20075;-86
2024/02/28 18:35:09;;;;;;;17.60;9.15;;;;;;;16.91;100.00;101570.88;10488100;28;20053;-85
2024/02/28 18:40:32;;;;;;;15.52;7.78;;;;;;;17.00;100.00;101570.91;10479919;28;20505;-84
2024/02/28 18:45:54;;;;;;;17.65;7.50;;;;;;;16.97;100.00;101568.22;10471523;28;20048;-85
2024/02/28 18:51:18;;;;;;;17.83;8.15;;;;;;;16.87;100.00;101569.09;10488526;28;20067;-86
2024/02/28 18:56:41;;;;;;;14.68;7.93;;;;;;;16.80;100.00;101567.31;10498799;28;20048;-83
2024/02/28 19:02:04;;;;;;;14.95;7.75;;;;;;;16.71;100.00;101565.50;10468852;28;20048;-85
2024/02/28 19:07:29;;;;;;;16.10;7.55;;;;;;;16.86;100.00;101578.88;10505760;28;20045;-81
2024/02/28 19:12:51;;;;;;;14.77;8.23;;;;;;;16.86;100.00;101580.66;10486178;28;20132;-84
2024/02/28 19:18:14;;;;;;;12.93;8.43;;;;;;;16.86;100.00;101573.56;10472300;28;20044;-85
2024/02/28 19:23:40;;;;;;;16.67;7.50;;;;;;;16.85;100.00;101570.88;10519046;28;20045;-83
2024/02/28 19:29:02;;;;;;;11.75;7.20;;;;;;;16.88;100.00;101579.75;10482543;28;20551;-82
2024/02/28 19:34:25;;;;;;;23.15;8.73;;;;;;;16.80;100.00;101578.88;10483054;28;20099;-82
2024/02/28 19:39:55;;;;;;;16.88;8.13;;;;;;;16.80;100.00;101581.53;10468409;28;20542;-82
2024/02/28 19:45:18;;;;;;;19.65;7.82;;;;;;;16.92;100.00;101591.34;10497379;27;20044;-88
2024/02/28 19:50:41;;;;;;;18.08;8.98;;;;;;;16.95;100.00;101576.22;10467909;28;20044;-86
2024/02/28 19:56:05;;;;;;;13.57;7.57;;;;;;;17.00;100.00;101573.59;10488401;28;20120;-88
2024/02/28 20:01:28;;;;;;;13.25;6.97;;;;;;;17.01;100.00;101573.56;10476523;28;20048;-88
2024/02/28 20:06:51;;;;;;;12.73;7.30;;;;;;;16.97;100.00;101563.78;10493401;28;20036;-89
2024/02/28 20:12:15;;;;;;;19.25;8.70;;;;;;;16.90;100.00;101548.66;10489836;28;20068;-87
2024/02/28 20:17:37;;;;;;;15.07;7.03;;;;;;;16.84;100.00;101548.63;10484195;28;20048;-87
2024/02/28 20:23:00;;;;;;;12.95;7.40;;;;;;;16.77;100.00;101544.19;10470503;28;20050;-85
2024/02/28 20:28:24;;;;;;;15.25;7.95;;;;;;;16.69;100.00;101554.81;10464310;28;20055;-88
2024/02/28 20:33:47;;;;;;;19.27;7.45;;;;;;;16.81;100.00;101550.38;10476313;28;20044;-87
2024/02/28 20:39:10;;;;;;;17.13;7.68;;;;;;;16.70;100.00;101556.59;10476954;28;20048;-87
2024/02/28 20:44:34;;;;;;;13.95;6.88;;;;;;;16.70;100.00;101556.59;10490957;28;20048;-88
2024/02/28 20:49:56;;;;;;;15.38;7.13;;;;;;;16.66;100.00;101543.25;10492764;28;20044;-88
2024/02/28 20:55:20;;;;;;;19.23;8.07;;;;;;;16.56;100.00;101536.97;10499282;28;20048;-87
2024/02/28 21:00:44;;;;;;;18.65;7.30;;;;;;;16.62;100.00;101547.69;10478887;28;20048;-89
2024/02/28 21:06:07;;;;;;;15.35;7.57;;;;;;;16.53;100.00;101536.97;10485003;28;20455;-88
2024/02/28 21:11:29;;;;;;;16.67;7.75;;;;;;;16.67;100.00;101524.56;10483744;28;20432;-87
2024/02/28 21:16:55;;;;;;;12.32;6.93;;;;;;;16.72;100.00;101541.50;10483614;28;20063;-87
2024/02/28 21:22:18;;;;;;;19.40;9.48;;;;;;;16.53;100.00;101546.75;10509540;28;20044;-87
2024/02/28 21:27:41;;;;;;;19.30;8.35;;;;;;;16.55;100.00;101544.94;10477418;28;20037;-88
2024/02/28 21:33:05;;;;;;;17.70;7.50;;;;;;;16.70;100.00;101556.59;10488474;28;20122;-89
2024/02/28 21:38:29;;;;;;;21.27;7.60;;;;;;;16.83;100.00;101551.28;10480164;28;20045;-87
2024/02/28 21:43:51;;;;;;;21.95;7.57;;;;;;;16.85;100.00;101566.44;10497559;28;20036;-88
2024/02/28 21:49:15;;;;;;;18.20;7.07;;;;;;;16.66;100.00;101564.59;10460109;28;20067;-88
2024/02/28 21:54:42;;;;;;;16.17;7.60;;;;;;;16.65;100.00;101557.47;10494787;28;20049;-88
2024/02/28 22:00:05;;;;;;;15.35;6.60;;;;;;;16.51;100.00;101554.72;10497233;28;20135;-88
2024/02/28 22:05:32;;;;;;;21.00;6.60;;;;;;;16.46;100.00;101556.47;10469938;28;20041;-87
2024/02/28 22:10:55;;;;;;;14.07;7.05;;;;;;;16.51;100.00;101559.16;10462860;28;20041;-87
2024/02/28 22:16:18;;;;;;;16.90;6.65;;;;;;;16.48;100.00;101565.34;10496638;28;20130;-86
2024/02/28 22:21:42;;;;;;;18.67;6.55;;;;;;;16.43;100.00;101559.13;10495113;28;20573;-87
2024/02/28 22:27:05;;;;;;;22.23;6.75;;;;;;;16.25;100.00;101565.25;10506275;28;20059;-87
2024/02/28 22:32:27;;;;;;;15.43;6.38;;;;;;;16.30;100.00;101566.16;10480634;28;20044;-87
2024/02/28 22:37:51;;;;;;;17.63;7.03;;;;;;;16.18;100.00;101565.22;10504085;28;20327;-87
2024/02/28 22:43:14;;;;;;;16.92;7.70;;;;;;;16.18;100.00;101565.22;10495344;28;20525;-88
2024/02/28 22:48:36;;;;;;;18.58;6.85;;;;;;;16.13;100.00;101569.63;10506284;28;20153;-87
2024/02/28 22:54:00;;;;;;;15.00;6.63;;;;;;;16.16;100.00;101572.28;10497238;28;20048;-87
2024/02/28 22:59:23;;;;;;;13.32;6.93;;;;;;;16.03;100.00;101567.78;10520006;28;20045;-87
2024/02/28 23:04:48;;;;;;;13.40;7.20;;;;;;;16.12;100.00;101567.84;10523026;28;20484;-86
2024/02/28 23:10:16;;;;;;;16.13;7.20;;;;;;;16.17;100.00;101563.44;10480861;28;20052;-86
2024/02/28 23:15:40;;;;;;;17.25;8.35;;;;;;;16.17;100.00;101566.09;10522210;28;20053;-86
2024/02/28 23:21:03;;;;;;;18.20;7.50;;;;;;;16.07;100.00;101577.59;10478673;28;20047;-87
2024/02/28 23:26:27;;;;;;;18.23;6.90;;;;;;;16.17;100.00;101574.09;10521155;28;20117;-88
2024/02/28 23:31:50;;;;;;;12.63;7.38;;;;;;;16.05;100.00;101582.00;10479802;28;20044;-88
2024/02/28 23:37:12;;;;;;;22.25;10.05;;;;;;;15.98;100.00;101582.84;10504538;28;20056;-88
2024/02/28 23:42:37;;;;;;;16.88;7.10;;;;;;;15.80;100.00;101573.84;10494170;28;20055;-87
2024/02/28 23:47:59;;;;;;;15.07;6.97;;;;;;;15.76;100.00;101561.38;10506238;28;20147;-88
2024/02/28 23:53:21;;;;;;;18.75;7.18;;;;;;;15.73;100.00;101558.72;10505007;28;20102;-88
2024/02/28 23:58:45;;;;;;;14.32;6.35;;;;;;;15.75;100.00;101548.94;10477592;28;20105;-87
